sensor_id;sensor_type;location;lat;lon;timestamp;temperature;humidity
41344;DHT22;27089;50.022;7.604;2023-03-19T00:00:15;8.50;99.90
41344;DHT22;27089;50.022;7.604;2023-03-19T00:02:42;8.50;99.90
41344;DHT22;27089;50.022;7.604;2023-03-19T00:05:15;8.60;99.90
41344;DHT22;27089;50.022;7.604;2023-03-19T00:07:42;8.50;99.90
41344;DHT22;27089;50.022;7.604;2023-03-19T00:10:10;8.60;99.90
41344;DHT22;27089;50.022;7.604;2023-03-19T00:12:37;8.60;99.90
41344;DHT22;27089;50.022;7.604;2023-03-19T00:15:05;8.70;99.90
41344;DHT22;27089;50.022;7.604;2023-03-19T00:17:33;8.70;99.90
41344;DHT22;27089;50.022;7.604;2023-03-19T00:20:00;8.70;99.90
41344;DHT22;27089;50.022;7.604;2023-03-19T00:22:28;8.60;99.90
41344;DHT22;27089;50.022;7.604;2023-03-19T00:24:55;8.50;99.90
41344;DHT22;27089;50.022;7.604;2023-03-19T00:27:22;8.50;99.90
41344;DHT22;27089;50.022;7.604;2023-03-19T00:29:50;8.50;99.90
41344;DHT22;27089;50.022;7.604;2023-03-19T00:32:17;8.50;99.90
41344;DHT22;27089;50.022;7.604;2023-03-19T00:34:43;8.50;99.90
41344;DHT22;27089;50.022;7.604;2023-03-19T00:37:11;8.50;99.90
41344;DHT22;27089;50.022;7.604;2023-03-19T00:39:39;8.60;99.90
41344;DHT22;27089;50.022;7.604;2023-03-19T00:42:07;8.60;99.90
41344;DHT22;27089;50.022;7.604;2023-03-19T00:44:34;8.60;99.90
41344;DHT22;27089;50.022;7.604;2023-03-19T00:47:01;8.60;99.90
41344;DHT22;27089;50.022;7.604;2023-03-19T00:49:28;8.60;99.90
41344;DHT22;27089;50.022;7.604;2023-03-19T00:51:55;8.70;99.90
41344;DHT22;27089;50.022;7.604;2023-03-19T00:54:22;8.70;99.90
41344;DHT22;27089;50.022;7.604;2023-03-19T00:56:50;8.70;99.90
41344;DHT22;27089;50.022;7.604;2023-03-19T00:59:17;8.60;99.90
41344;DHT22;27089;50.022;7.604;2023-03-19T01:01:44;8.60;99.90
41344;DHT22;27089;50.022;7.604;2023-03-19T01:04:11;8.50;99.90
41344;DHT22;27089;50.022;7.604;2023-03-19T01:06:39;8.60;99.90
41344;DHT22;27089;50.022;7.604;2023-03-19T01:09:06;8.60;99.90
41344;DHT22;27089;50.022;7.604;2023-03-19T01:11:33;8.60;99.90
41344;DHT22;27089;50.022;7.604;2023-03-19T01:14:01;8.60;99.90
41344;DHT22;27089;50.022;7.604;2023-03-19T01:16:28;8.60;99.90
41344;DHT22;27089;50.022;7.604;2023-03-19T01:18:56;8.60;99.90
41344;DHT22;27089;50.022;7.604;2023-03-19T01:21:23;8.60;99.90
41344;DHT22;27089;50.022;7.604;2023-03-19T01:23:50;8.60;99.90
41344;DHT22;27089;50.022;7.604;2023-03-19T01:26:17;8.70;99.90
41344;DHT22;27089;50.022;7.604;2023-03-19T01:28:44;8.70;99.90
41344;DHT22;27089;50.022;7.604;2023-03-19T01:31:13;8.70;99.90
41344;DHT22;27089;50.022;7.604;2023-03-19T01:33:40;8.70;99.90
41344;DHT22;27089;50.022;7.604;2023-03-19T01:36:08;8.60;99.90
41344;DHT22;27089;50.022;7.604;2023-03-19T01:38:35;8.60;99.90
41344;DHT22;27089;50.022;7.604;2023-03-19T01:41:02;8.60;99.90
41344;DHT22;27089;50.022;7.604;2023-03-19T01:43:30;8.60;99.90
41344;DHT22;27089;50.022;7.604;2023-03-19T01:46:00;8.60;99.90
41344;DHT22;27089;50.022;7.604;2023-03-19T01:48:35;8.60;99.90
41344;DHT22;27089;50.022;7.604;2023-03-19T01:51:04;8.50;99.90
41344;DHT22;27089;50.022;7.604;2023-03-19T01:53:33;8.50;99.90
41344;DHT22;27089;50.022;7.604;2023-03-19T01:56:05;8.60;99.90
41344;DHT22;27089;50.022;7.604;2023-03-19T01:58:34;8.60;99.90
41344;DHT22;27089;50.022;7.604;2023-03-19T02:01:01;8.60;99.90
41344;DHT22;27089;50.022;7.604;2023-03-19T02:03:30;8.70;99.90
41344;DHT22;27089;50.022;7.604;2023-03-19T02:05:58;8.70;99.90
41344;DHT22;27089;50.022;7.604;2023-03-19T02:08:27;8.70;99.90
41344;DHT22;27089;50.022;7.604;2023-03-19T02:10:55;8.60;99.90
41344;DHT22;27089;50.022;7.604;2023-03-19T02:13:25;8.60;99.90
41344;DHT22;27089;50.022;7.604;2023-03-19T02:15:52;8.50;99.90
41344;DHT22;27089;50.022;7.604;2023-03-19T02:18:21;8.50;99.90
41344;DHT22;27089;50.022;7.604;2023-03-19T02:20:52;8.40;99.90
41344;DHT22;27089;50.022;7.604;2023-03-19T02:23:31;8.30;99.90
41344;DHT22;27089;50.022;7.604;2023-03-19T02:26:06;8.20;99.90
41344;DHT22;27089;50.022;7.604;2023-03-19T02:28:35;8.10;99.90
41344;DHT22;27089;50.022;7.604;2023-03-19T02:31:03;8.10;99.90
41344;DHT22;27089;50.022;7.604;2023-03-19T02:33:30;8.00;99.90
41344;DHT22;27089;50.022;7.604;2023-03-19T02:35:58;8.00;99.90
41344;DHT22;27089;50.022;7.604;2023-03-19T02:38:26;7.80;99.90
41344;DHT22;27089;50.022;7.604;2023-03-19T02:40:59;7.60;99.90
41344;DHT22;27089;50.022;7.604;2023-03-19T02:43:28;7.40;99.90
41344;DHT22;27089;50.022;7.604;2023-03-19T02:45:56;7.30;99.90
41344;DHT22;27089;50.022;7.604;2023-03-19T02:48:24;7.20;99.90
41344;DHT22;27089;50.022;7.604;2023-03-19T02:50:51;7.20;99.90
41344;DHT22;27089;50.022;7.604;2023-03-19T02:53:18;7.10;99.90
41344;DHT22;27089;50.022;7.604;2023-03-19T02:55:45;7.10;99.90
41344;DHT22;27089;50.022;7.604;2023-03-19T02:58:12;7.00;99.90
41344;DHT22;27089;50.022;7.604;2023-03-19T03:00:40;7.00;99.90
41344;DHT22;27089;50.022;7.604;2023-03-19T03:03:07;7.00;99.90
41344;DHT22;27089;50.022;7.604;2023-03-19T03:05:35;6.90;99.90
41344;DHT22;27089;50.022;7.604;2023-03-19T03:08:03;6.70;99.90
41344;DHT22;27089;50.022;7.604;2023-03-19T03:10:30;6.60;99.90
41344;DHT22;27089;50.022;7.604;2023-03-19T03:12:57;6.50;99.90
41344;DHT22;27089;50.022;7.604;2023-03-19T03:15:25;6.50;99.90
41344;DHT22;27089;50.022;7.604;2023-03-19T03:17:54;6.40;99.90
41344;DHT22;27089;50.022;7.604;2023-03-19T03:20:21;6.40;99.90
41344;DHT22;27089;50.022;7.604;2023-03-19T03:22:49;6.40;99.90
41344;DHT22;27089;50.022;7.604;2023-03-19T03:25:16;6.40;99.90
41344;DHT22;27089;50.022;7.604;2023-03-19T03:27:43;6.40;99.90
41344;DHT22;27089;50.022;7.604;2023-03-19T03:30:11;6.40;99.90
41344;DHT22;27089;50.022;7.604;2023-03-19T03:32:38;6.40;99.90
41344;DHT22;27089;50.022;7.604;2023-03-19T03:35:08;6.40;99.90
41344;DHT22;27089;50.022;7.604;2023-03-19T03:37:35;6.30;99.90
41344;DHT22;27089;50.022;7.604;2023-03-19T03:40:03;6.30;99.90
41344;DHT22;27089;50.022;7.604;2023-03-19T03:42:33;6.40;99.90
41344;DHT22;27089;50.022;7.604;2023-03-19T03:45:00;6.40;99.90
41344;DHT22;27089;50.022;7.604;2023-03-19T03:47:28;6.30;99.90
41344;DHT22;27089;50.022;7.604;2023-03-19T03:49:55;6.20;99.90
41344;DHT22;27089;50.022;7.604;2023-03-19T03:52:23;6.20;99.90
41344;DHT22;27089;50.022;7.604;2023-03-19T03:54:50;6.10;99.90
41344;DHT22;27089;50.022;7.604;2023-03-19T03:57:17;6.10;99.90
41344;DHT22;27089;50.022;7.604;2023-03-19T03:59:44;6.00;99.90
41344;DHT22;27089;50.022;7.604;2023-03-19T04:02:11;6.00;99.90
41344;DHT22;27089;50.022;7.604;2023-03-19T04:04:38;5.90;99.90
41344;DHT22;27089;50.022;7.604;2023-03-19T04:07:06;5.90;99.90
41344;DHT22;27089;50.022;7.604;2023-03-19T04:09:34;5.90;99.90
41344;DHT22;27089;50.022;7.604;2023-03-19T04:12:01;5.90;99.90
41344;DHT22;27089;50.022;7.604;2023-03-19T04:14:29;5.90;99.90
41344;DHT22;27089;50.022;7.604;2023-03-19T04:16:56;5.90;99.90
41344;DHT22;27089;50.022;7.604;2023-03-19T04:19:23;5.80;99.90
41344;DHT22;27089;50.022;7.604;2023-03-19T04:21:50;5.60;99.90
41344;DHT22;27089;50.022;7.604;2023-03-19T04:24:17;5.50;99.90
41344;DHT22;27089;50.022;7.604;2023-03-19T04:26:45;5.50;99.90
41344;DHT22;27089;50.022;7.604;2023-03-19T04:29:14;5.50;99.90
41344;DHT22;27089;50.022;7.604;2023-03-19T04:31:41;5.50;99.90
41344;DHT22;27089;50.022;7.604;2023-03-19T04:34:08;5.50;99.90
41344;DHT22;27089;50.022;7.604;2023-03-19T04:36:36;5.50;99.90
41344;DHT22;27089;50.022;7.604;2023-03-19T04:39:04;5.50;99.90
41344;DHT22;27089;50.022;7.604;2023-03-19T04:41:31;5.50;99.90
41344;DHT22;27089;50.022;7.604;2023-03-19T04:43:59;5.50;99.90
41344;DHT22;27089;50.022;7.604;2023-03-19T04:46:26;5.50;99.90
41344;DHT22;27089;50.022;7.604;2023-03-19T04:48:53;5.40;99.90
41344;DHT22;27089;50.022;7.604;2023-03-19T04:51:20;5.40;99.90
41344;DHT22;27089;50.022;7.604;2023-03-19T04:53:47;5.30;99.90
41344;DHT22;27089;50.022;7.604;2023-03-19T04:56:14;5.40;99.90
41344;DHT22;27089;50.022;7.604;2023-03-19T04:58:42;5.40;99.90
41344;DHT22;27089;50.022;7.604;2023-03-19T05:01:11;5.40;99.90
41344;DHT22;27089;50.022;7.604;2023-03-19T05:03:38;5.30;99.90
41344;DHT22;27089;50.022;7.604;2023-03-19T05:06:05;5.30;99.90
41344;DHT22;27089;50.022;7.604;2023-03-19T05:08:32;5.30;99.90
41344;DHT22;27089;50.022;7.604;2023-03-19T05:10:59;5.30;99.90
41344;DHT22;27089;50.022;7.604;2023-03-19T05:13:27;5.20;99.90
41344;DHT22;27089;50.022;7.604;2023-03-19T05:15:54;5.10;99.90
41344;DHT22;27089;50.022;7.604;2023-03-19T05:18:22;5.10;99.90
41344;DHT22;27089;50.022;7.604;2023-03-19T05:20:50;5.10;99.90
41344;DHT22;27089;50.022;7.604;2023-03-19T05:23:17;5.10;99.90
41344;DHT22;27089;50.022;7.604;2023-03-19T05:25:44;5.10;99.90
41344;DHT22;27089;50.022;7.604;2023-03-19T05:28:12;5.10;99.90
41344;DHT22;27089;50.022;7.604;2023-03-19T05:30:39;5.00;99.90
41344;DHT22;27089;50.022;7.604;2023-03-19T05:33:07;5.00;99.90
41344;DHT22;27089;50.022;7.604;2023-03-19T05:35:36;5.00;99.90
41344;DHT22;27089;50.022;7.604;2023-03-19T05:38:04;5.10;99.90
41344;DHT22;27089;50.022;7.604;2023-03-19T05:40:31;5.10;99.90
41344;DHT22;27089;50.022;7.604;2023-03-19T05:42:59;5.20;99.90
41344;DHT22;27089;50.022;7.604;2023-03-19T05:45:26;5.30;99.90
41344;DHT22;27089;50.022;7.604;2023-03-19T05:47:53;5.30;99.90
41344;DHT22;27089;50.022;7.604;2023-03-19T05:50:20;5.30;99.90
41344;DHT22;27089;50.022;7.604;2023-03-19T05:52:49;5.40;99.90
41344;DHT22;27089;50.022;7.604;2023-03-19T05:55:16;5.40;99.90
41344;DHT22;27089;50.022;7.604;2023-03-19T05:57:43;5.40;99.90
41344;DHT22;27089;50.022;7.604;2023-03-19T06:00:11;5.40;99.90
41344;DHT22;27089;50.022;7.604;2023-03-19T06:02:39;5.40;99.90
41344;DHT22;27089;50.022;7.604;2023-03-19T06:05:07;5.40;99.90
41344;DHT22;27089;50.022;7.604;2023-03-19T06:07:34;5.50;99.90
41344;DHT22;27089;50.022;7.604;2023-03-19T06:10:03;5.60;99.90
41344;DHT22;27089;50.022;7.604;2023-03-19T06:12:31;5.80;99.90
41344;DHT22;27089;50.022;7.604;2023-03-19T06:14:58;5.90;99.90
41344;DHT22;27089;50.022;7.604;2023-03-19T06:17:24;6.10;99.90
41344;DHT22;27089;50.022;7.604;2023-03-19T06:19:51;6.20;99.90
41344;DHT22;27089;50.022;7.604;2023-03-19T06:22:18;6.40;99.90
41344;DHT22;27089;50.022;7.604;2023-03-19T06:24:45;6.60;99.90
41344;DHT22;27089;50.022;7.604;2023-03-19T06:27:15;6.80;99.90
41344;DHT22;27089;50.022;7.604;2023-03-19T06:29:42;6.90;99.90
41344;DHT22;27089;50.022;7.604;2023-03-19T06:32:09;7.10;99.90
41344;DHT22;27089;50.022;7.604;2023-03-19T06:34:36;7.20;99.90
41344;DHT22;27089;50.022;7.604;2023-03-19T06:37:03;7.30;99.90
41344;DHT22;27089;50.022;7.604;2023-03-19T06:39:30;7.20;99.90
41344;DHT22;27089;50.022;7.604;2023-03-19T06:41:57;7.20;99.90
41344;DHT22;27089;50.022;7.604;2023-03-19T06:44:25;7.20;99.90
41344;DHT22;27089;50.022;7.604;2023-03-19T06:46:53;7.20;99.90
41344;DHT22;27089;50.022;7.604;2023-03-19T06:49:20;7.20;99.90
41344;DHT22;27089;50.022;7.604;2023-03-19T06:51:47;7.30;99.90
41344;DHT22;27089;50.022;7.604;2023-03-19T06:54:14;7.50;99.90
41344;DHT22;27089;50.022;7.604;2023-03-19T06:56:41;7.50;99.90
41344;DHT22;27089;50.022;7.604;2023-03-19T06:59:09;7.60;99.90
41344;DHT22;27089;50.022;7.604;2023-03-19T07:01:39;7.50;99.90
41344;DHT22;27089;50.022;7.604;2023-03-19T07:04:06;7.60;99.90
41344;DHT22;27089;50.022;7.604;2023-03-19T07:06:34;7.70;99.90
41344;DHT22;27089;50.022;7.604;2023-03-19T07:09:01;7.70;99.90
41344;DHT22;27089;50.022;7.604;2023-03-19T07:11:28;7.80;99.90
41344;DHT22;27089;50.022;7.604;2023-03-19T07:13:55;7.80;99.90
41344;DHT22;27089;50.022;7.604;2023-03-19T07:16:22;8.00;99.90
41344;DHT22;27089;50.022;7.604;2023-03-19T07:18:50;8.20;99.90
41344;DHT22;27089;50.022;7.604;2023-03-19T07:21:17;8.40;99.90
41344;DHT22;27089;50.022;7.604;2023-03-19T07:23:44;8.60;99.90
41344;DHT22;27089;50.022;7.604;2023-03-19T07:26:12;8.90;99.90
41344;DHT22;27089;50.022;7.604;2023-03-19T07:28:39;9.10;99.90
41344;DHT22;27089;50.022;7.604;2023-03-19T07:31:06;9.20;99.90
41344;DHT22;27089;50.022;7.604;2023-03-19T07:33:33;9.40;99.90
41344;DHT22;27089;50.022;7.604;2023-03-19T07:36:02;9.70;99.90
41344;DHT22;27089;50.022;7.604;2023-03-19T07:38:29;9.90;99.90
41344;DHT22;27089;50.022;7.604;2023-03-19T07:40:55;10.10;99.90
41344;DHT22;27089;50.022;7.604;2023-03-19T07:43:22;10.20;99.90
41344;DHT22;27089;50.022;7.604;2023-03-19T07:45:50;10.50;99.90
41344;DHT22;27089;50.022;7.604;2023-03-19T07:48:17;10.60;99.90
41344;DHT22;27089;50.022;7.604;2023-03-19T07:50:44;10.60;99.90
41344;DHT22;27089;50.022;7.604;2023-03-19T07:53:12;10.70;99.90
41344;DHT22;27089;50.022;7.604;2023-03-19T07:55:39;10.70;99.90
41344;DHT22;27089;50.022;7.604;2023-03-19T07:58:06;10.80;99.90
41344;DHT22;27089;50.022;7.604;2023-03-19T08:00:33;10.80;99.90
41344;DHT22;27089;50.022;7.604;2023-03-19T08:03:00;10.90;99.90
41344;DHT22;27089;50.022;7.604;2023-03-19T08:05:27;10.90;99.90
41344;DHT22;27089;50.022;7.604;2023-03-19T08:07:54;10.90;99.90
41344;DHT22;27089;50.022;7.604;2023-03-19T08:10:23;10.90;99.90
41344;DHT22;27089;50.022;7.604;2023-03-19T08:12:50;10.90;99.90
41344;DHT22;27089;50.022;7.604;2023-03-19T08:15:17;10.90;99.90
41344;DHT22;27089;50.022;7.604;2023-03-19T08:17:44;11.00;99.90
41344;DHT22;27089;50.022;7.604;2023-03-19T08:20:13;11.00;99.90
41344;DHT22;27089;50.022;7.604;2023-03-19T08:22:41;11.00;99.90
41344;DHT22;27089;50.022;7.604;2023-03-19T08:25:09;11.10;99.90
41344;DHT22;27089;50.022;7.604;2023-03-19T08:27:37;11.20;99.90
41344;DHT22;27089;50.022;7.604;2023-03-19T08:30:07;11.20;99.90
41344;DHT22;27089;50.022;7.604;2023-03-19T08:32:34;11.30;99.90
41344;DHT22;27089;50.022;7.604;2023-03-19T08:35:01;11.40;99.90
41344;DHT22;27089;50.022;7.604;2023-03-19T08:37:28;11.60;99.90
41344;DHT22;27089;50.022;7.604;2023-03-19T08:39:56;11.90;99.90
41344;DHT22;27089;50.022;7.604;2023-03-19T08:42:23;12.20;99.90
41344;DHT22;27089;50.022;7.604;2023-03-19T08:44:51;12.40;99.90
41344;DHT22;27089;50.022;7.604;2023-03-19T08:47:18;12.50;99.90
41344;DHT22;27089;50.022;7.604;2023-03-19T08:49:48;12.60;99.90
41344;DHT22;27089;50.022;7.604;2023-03-19T08:52:15;12.70;99.90
41344;DHT22;27089;50.022;7.604;2023-03-19T08:54:42;12.80;99.90
41344;DHT22;27089;50.022;7.604;2023-03-19T08:57:10;12.90;99.90
41344;DHT22;27089;50.022;7.604;2023-03-19T08:59:37;12.90;99.90
41344;DHT22;27089;50.022;7.604;2023-03-19T09:02:06;13.00;99.90
41344;DHT22;27089;50.022;7.604;2023-03-19T09:04:33;13.30;99.90
41344;DHT22;27089;50.022;7.604;2023-03-19T09:07:04;13.50;99.90
41344;DHT22;27089;50.022;7.604;2023-03-19T09:09:31;14.00;99.90
41344;DHT22;27089;50.022;7.604;2023-03-19T09:11:58;14.40;99.90
41344;DHT22;27089;50.022;7.604;2023-03-19T09:14:25;14.40;99.90
41344;DHT22;27089;50.022;7.604;2023-03-19T09:16:52;14.30;99.90
41344;DHT22;27089;50.022;7.604;2023-03-19T09:19:21;14.20;99.90
41344;DHT22;27089;50.022;7.604;2023-03-19T09:21:49;14.10;99.90
41344;DHT22;27089;50.022;7.604;2023-03-19T09:24:16;14.00;99.90
41344;DHT22;27089;50.022;7.604;2023-03-19T09:26:43;14.00;99.90
41344;DHT22;27089;50.022;7.604;2023-03-19T09:29:10;14.00;99.90
41344;DHT22;27089;50.022;7.604;2023-03-19T09:31:37;14.20;99.90
41344;DHT22;27089;50.022;7.604;2023-03-19T09:34:05;14.50;99.90
41344;DHT22;27089;50.022;7.604;2023-03-19T09:36:35;14.70;99.90
41344;DHT22;27089;50.022;7.604;2023-03-19T09:39:02;14.90;99.90
41344;DHT22;27089;50.022;7.604;2023-03-19T09:41:37;15.10;99.90
41344;DHT22;27089;50.022;7.604;2023-03-19T09:44:11;15.40;99.90
41344;DHT22;27089;50.022;7.604;2023-03-19T09:46:42;15.70;99.90
41344;DHT22;27089;50.022;7.604;2023-03-19T09:49:16;15.90;99.90
41344;DHT22;27089;50.022;7.604;2023-03-19T09:51:51;16.10;99.90
41344;DHT22;27089;50.022;7.604;2023-03-19T09:54:26;16.00;99.90
41344;DHT22;27089;50.022;7.604;2023-03-19T09:56:55;16.00;99.90
41344;DHT22;27089;50.022;7.604;2023-03-19T09:59:24;16.20;99.90
41344;DHT22;27089;50.022;7.604;2023-03-19T10:01:57;16.50;99.90
41344;DHT22;27089;50.022;7.604;2023-03-19T10:04:41;16.60;99.90
41344;DHT22;27089;50.022;7.604;2023-03-19T10:07:23;16.50;99.90
41344;DHT22;27089;50.022;7.604;2023-03-19T10:10:16;16.30;99.90
41344;DHT22;27089;50.022;7.604;2023-03-19T10:12:55;15.90;99.90
41344;DHT22;27089;50.022;7.604;2023-03-19T10:15:27;15.70;99.90
41344;DHT22;27089;50.022;7.604;2023-03-19T10:18:00;15.60;99.90
41344;DHT22;27089;50.022;7.604;2023-03-19T10:20:50;15.30;99.90
41344;DHT22;27089;50.022;7.604;2023-03-19T10:23:41;15.10;99.90
41344;DHT22;27089;50.022;7.604;2023-03-19T10:26:12;14.90;99.90
41344;DHT22;27089;50.022;7.604;2023-03-19T10:28:41;14.70;99.90
41344;DHT22;27089;50.022;7.604;2023-03-19T10:31:28;14.60;99.90
41344;DHT22;27089;50.022;7.604;2023-03-19T10:34:04;14.40;99.90
41344;DHT22;27089;50.022;7.604;2023-03-19T10:36:34;14.20;99.90
41344;DHT22;27089;50.022;7.604;2023-03-19T10:39:04;13.90;99.90
41344;DHT22;27089;50.022;7.604;2023-03-19T10:41:45;13.70;99.90
41344;DHT22;27089;50.022;7.604;2023-03-19T10:44:25;13.50;99.90
41344;DHT22;27089;50.022;7.604;2023-03-19T10:46:56;13.20;99.90
41344;DHT22;27089;50.022;7.604;2023-03-19T10:49:24;13.00;99.90
41344;DHT22;27089;50.022;7.604;2023-03-19T10:51:55;12.80;99.90
41344;DHT22;27089;50.022;7.604;2023-03-19T10:54:25;12.50;99.90
41344;DHT22;27089;50.022;7.604;2023-03-19T10:56:55;12.30;99.90
41344;DHT22;27089;50.022;7.604;2023-03-19T10:59:24;12.10;99.90
41344;DHT22;27089;50.022;7.604;2023-03-19T11:01:56;11.90;99.90
41344;DHT22;27089;50.022;7.604;2023-03-19T11:04:24;11.80;99.90
41344;DHT22;27089;50.022;7.604;2023-03-19T11:06:54;11.70;99.90
41344;DHT22;27089;50.022;7.604;2023-03-19T11:09:29;11.60;99.90
41344;DHT22;27089;50.022;7.604;2023-03-19T11:12:05;11.70;99.90
41344;DHT22;27089;50.022;7.604;2023-03-19T11:14:35;11.70;99.90
41344;DHT22;27089;50.022;7.604;2023-03-19T11:17:13;11.80;99.90
41344;DHT22;27089;50.022;7.604;2023-03-19T11:19:47;11.90;99.90
41344;DHT22;27089;50.022;7.604;2023-03-19T11:22:16;11.90;99.90
41344;DHT22;27089;50.022;7.604;2023-03-19T11:24:51;11.90;99.90
41344;DHT22;27089;50.022;7.604;2023-03-19T11:27:25;11.90;99.90
41344;DHT22;27089;50.022;7.604;2023-03-19T11:29:52;11.90;99.90
41344;DHT22;27089;50.022;7.604;2023-03-19T11:35:22;12.00;99.90
41344;DHT22;27089;50.022;7.604;2023-03-19T11:37:54;12.00;99.90
41344;DHT22;27089;50.022;7.604;2023-03-19T11:40:33;12.10;99.90
41344;DHT22;27089;50.022;7.604;2023-03-19T11:43:36;12.20;99.90
41344;DHT22;27089;50.022;7.604;2023-03-19T11:46:12;12.40;99.90
41344;DHT22;27089;50.022;7.604;2023-03-19T11:49:05;12.40;99.90
41344;DHT22;27089;50.022;7.604;2023-03-19T11:51:39;12.40;99.90
41344;DHT22;27089;50.022;7.604;2023-03-19T11:54:16;12.40;99.90
41344;DHT22;27089;50.022;7.604;2023-03-19T11:56:50;12.30;99.90
41344;DHT22;27089;50.022;7.604;2023-03-19T11:59:35;12.20;99.90
41344;DHT22;27089;50.022;7.604;2023-03-19T12:05:18;11.90;99.90
41344;DHT22;27089;50.022;7.604;2023-03-19T12:07:53;12.00;99.90
41344;DHT22;27089;50.022;7.604;2023-03-19T12:10:38;12.10;99.90
41344;DHT22;27089;50.022;7.604;2023-03-19T12:13:17;12.40;99.90
41344;DHT22;27089;50.022;7.604;2023-03-19T12:15:57;12.70;99.90
41344;DHT22;27089;50.022;7.604;2023-03-19T12:18:42;13.00;99.90
41344;DHT22;27089;50.022;7.604;2023-03-19T12:21:16;13.20;99.90
41344;DHT22;27089;50.022;7.604;2023-03-19T12:23:58;13.20;99.90
41344;DHT22;27089;50.022;7.604;2023-03-19T12:26:33;13.30;99.90
41344;DHT22;27089;50.022;7.604;2023-03-19T12:29:15;13.50;99.90
41344;DHT22;27089;50.022;7.604;2023-03-19T12:31:55;13.60;99.90
41344;DHT22;27089;50.022;7.604;2023-03-19T12:34:29;13.90;99.90
41344;DHT22;27089;50.022;7.604;2023-03-19T12:37:07;14.10;99.90
41344;DHT22;27089;50.022;7.604;2023-03-19T12:39:39;14.40;99.90
41344;DHT22;27089;50.022;7.604;2023-03-19T12:42:11;14.70;99.90
41344;DHT22;27089;50.022;7.604;2023-03-19T12:44:43;14.90;99.90
41344;DHT22;27089;50.022;7.604;2023-03-19T12:47:15;14.90;99.90
41344;DHT22;27089;50.022;7.604;2023-03-19T12:49:47;14.80;99.90
41344;DHT22;27089;50.022;7.604;2023-03-19T12:52:19;14.70;99.90
41344;DHT22;27089;50.022;7.604;2023-03-19T12:54:53;14.60;99.90
41344;DHT22;27089;50.022;7.604;2023-03-19T12:57:28;14.60;99.90
41344;DHT22;27089;50.022;7.604;2023-03-19T13:00:02;14.60;99.90
41344;DHT22;27089;50.022;7.604;2023-03-19T13:02:35;14.60;99.90
41344;DHT22;27089;50.022;7.604;2023-03-19T13:05:08;14.60;99.90
41344;DHT22;27089;50.022;7.604;2023-03-19T13:07:41;14.70;99.90
41344;DHT22;27089;50.022;7.604;2023-03-19T13:10:13;14.90;99.90
41344;DHT22;27089;50.022;7.604;2023-03-19T13:12:43;15.00;99.90
41344;DHT22;27089;50.022;7.604;2023-03-19T13:15:18;14.90;99.90
41344;DHT22;27089;50.022;7.604;2023-03-19T13:17:56;14.70;99.90
41344;DHT22;27089;50.022;7.604;2023-03-19T13:20:33;14.50;99.90
41344;DHT22;27089;50.022;7.604;2023-03-19T13:23:02;14.30;99.90
41344;DHT22;27089;50.022;7.604;2023-03-19T13:25:33;14.20;99.90
41344;DHT22;27089;50.022;7.604;2023-03-19T13:28:00;14.10;99.90
41344;DHT22;27089;50.022;7.604;2023-03-19T13:30:33;14.00;99.90
41344;DHT22;27089;50.022;7.604;2023-03-19T13:33:05;14.00;99.90
41344;DHT22;27089;50.022;7.604;2023-03-19T13:35:37;14.20;99.90
41344;DHT22;27089;50.022;7.604;2023-03-19T13:38:14;14.30;99.90
41344;DHT22;27089;50.022;7.604;2023-03-19T13:40:47;14.30;99.90
41344;DHT22;27089;50.022;7.604;2023-03-19T13:46:33;13.90;99.90
41344;DHT22;27089;50.022;7.604;2023-03-19T13:49:09;13.60;99.90
41344;DHT22;27089;50.022;7.604;2023-03-19T13:51:50;13.40;99.90
41344;DHT22;27089;50.022;7.604;2023-03-19T13:54:20;13.30;99.90
41344;DHT22;27089;50.022;7.604;2023-03-19T13:57:18;13.10;99.90
41344;DHT22;27089;50.022;7.604;2023-03-19T13:59:47;13.00;99.90
41344;DHT22;27089;50.022;7.604;2023-03-19T14:02:45;13.00;99.90
41344;DHT22;27089;50.022;7.604;2023-03-19T14:05:17;13.10;99.90
41344;DHT22;27089;50.022;7.604;2023-03-19T14:07:49;13.20;99.90
41344;DHT22;27089;50.022;7.604;2023-03-19T14:10:23;13.50;99.90
41344;DHT22;27089;50.022;7.604;2023-03-19T14:13:00;13.80;99.90
41344;DHT22;27089;50.022;7.604;2023-03-19T14:15:28;14.10;99.90
41344;DHT22;27089;50.022;7.604;2023-03-19T14:18:00;14.50;99.90
41344;DHT22;27089;50.022;7.604;2023-03-19T14:20:29;14.80;99.90
41344;DHT22;27089;50.022;7.604;2023-03-19T14:23:20;14.80;99.90
41344;DHT22;27089;50.022;7.604;2023-03-19T14:25:54;14.50;99.90
41344;DHT22;27089;50.022;7.604;2023-03-19T14:28:30;14.20;99.90
41344;DHT22;27089;50.022;7.604;2023-03-19T14:30:58;14.00;99.90
41344;DHT22;27089;50.022;7.604;2023-03-19T14:33:34;14.00;99.90
41344;DHT22;27089;50.022;7.604;2023-03-19T14:36:04;14.10;99.90
41344;DHT22;27089;50.022;7.604;2023-03-19T14:38:36;14.20;99.90
41344;DHT22;27089;50.022;7.604;2023-03-19T14:41:05;14.30;99.90
41344;DHT22;27089;50.022;7.604;2023-03-19T14:46:32;14.50;99.90
41344;DHT22;27089;50.022;7.604;2023-03-19T14:49:38;14.50;99.90
41344;DHT22;27089;50.022;7.604;2023-03-19T14:52:14;14.60;99.90
41344;DHT22;27089;50.022;7.604;2023-03-19T14:54:46;14.70;99.90
41344;DHT22;27089;50.022;7.604;2023-03-19T14:57:17;14.70;99.90
41344;DHT22;27089;50.022;7.604;2023-03-19T14:59:44;14.70;99.90
41344;DHT22;27089;50.022;7.604;2023-03-19T15:02:33;14.60;99.90
41344;DHT22;27089;50.022;7.604;2023-03-19T15:05:03;14.60;99.90
41344;DHT22;27089;50.022;7.604;2023-03-19T15:07:33;14.70;99.90
41344;DHT22;27089;50.022;7.604;2023-03-19T15:10:04;14.60;99.90
41344;DHT22;27089;50.022;7.604;2023-03-19T15:15:37;14.30;99.90
41344;DHT22;27089;50.022;7.604;2023-03-19T15:18:07;14.20;99.90
41344;DHT22;27089;50.022;7.604;2023-03-19T15:20:38;14.10;99.90
41344;DHT22;27089;50.022;7.604;2023-03-19T15:23:10;13.90;99.90
41344;DHT22;27089;50.022;7.604;2023-03-19T15:25:44;13.90;99.90
41344;DHT22;27089;50.022;7.604;2023-03-19T15:28:13;13.90;99.90
41344;DHT22;27089;50.022;7.604;2023-03-19T15:30:40;13.90;99.90
41344;DHT22;27089;50.022;7.604;2023-03-19T15:33:18;13.80;99.90
41344;DHT22;27089;50.022;7.604;2023-03-19T15:35:51;13.90;99.90
41344;DHT22;27089;50.022;7.604;2023-03-19T15:38:18;13.90;99.90
41344;DHT22;27089;50.022;7.604;2023-03-19T15:40:46;13.90;99.90
41344;DHT22;27089;50.022;7.604;2023-03-19T15:43:13;13.90;99.90
41344;DHT22;27089;50.022;7.604;2023-03-19T15:45:43;13.90;99.90
41344;DHT22;27089;50.022;7.604;2023-03-19T15:48:17;13.80;99.90
41344;DHT22;27089;50.022;7.604;2023-03-19T15:50:47;13.80;99.90
41344;DHT22;27089;50.022;7.604;2023-03-19T15:53:20;13.70;99.90
41344;DHT22;27089;50.022;7.604;2023-03-19T15:55:49;13.50;99.90
41344;DHT22;27089;50.022;7.604;2023-03-19T15:58:20;13.50;99.90
41344;DHT22;27089;50.022;7.604;2023-03-19T16:00:48;13.40;99.90
41344;DHT22;27089;50.022;7.604;2023-03-19T16:03:19;13.30;99.90
41344;DHT22;27089;50.022;7.604;2023-03-19T16:05:50;13.30;99.90
41344;DHT22;27089;50.022;7.604;2023-03-19T16:08:22;13.30;99.90
41344;DHT22;27089;50.022;7.604;2023-03-19T16:10:50;13.20;99.90